createdAt,value
2022-12-28T00:01:28.254Z,55.29
2022-12-28T00:03:56.360Z,55.44
2022-12-28T00:06:24.731Z,55.50
2022-12-28T00:08:56.466Z,55.50
2022-12-28T00:11:28.365Z,55.42
2022-12-28T00:14:01.978Z,55.54
2022-12-28T00:16:39.670Z,55.67
2022-12-28T00:19:16.959Z,55.51
2022-12-28T00:21:45.237Z,55.59
2022-12-28T00:24:23.464Z,55.81
2022-12-28T00:26:50.806Z,55.79
2022-12-28T00:29:18.386Z,55.80
2022-12-28T00:31:48.169Z,55.84
2022-12-28T00:34:18.025Z,55.77
2022-12-28T00:37:08.528Z,55.83
2022-12-28T00:39:34.449Z,55.88
2022-12-28T00:42:00.993Z,56.03
2022-12-28T00:44:29.947Z,56.08
2022-12-28T00:46:56.651Z,56.17
2022-12-28T00:49:23.406Z,56.10
2022-12-28T00:51:50.136Z,56.20
2022-12-28T00:54:16.802Z,56.15
2022-12-28T00:56:43.531Z,56.01
2022-12-28T00:59:11.986Z,56.17
2022-12-28T01:01:38.910Z,55.97
2022-12-28T01:04:05.837Z,55.77
2022-12-28T01:06:32.520Z,55.68
2022-12-28T01:09:00.040Z,55.45
2022-12-28T01:11:30.121Z,55.62
2022-12-28T01:14:00.711Z,55.80
2022-12-28T01:16:30.714Z,55.83
2022-12-28T01:19:00.002Z,55.94
2022-12-28T01:21:29.756Z,55.74
2022-12-28T01:23:58.488Z,55.78
2022-12-28T01:26:26.547Z,55.88
2022-12-28T01:28:53.648Z,55.90
2022-12-28T01:31:21.511Z,55.74
2022-12-28T01:33:48.233Z,55.82
2022-12-28T01:36:18.498Z,55.72
2022-12-28T01:38:46.563Z,55.78
2022-12-28T01:41:18.573Z,55.64
2022-12-28T01:43:54.454Z,55.74
2022-12-28T01:47:00.963Z,55.82
2022-12-28T01:49:40.013Z,55.94
2022-12-28T01:52:12.664Z,55.79
2022-12-28T01:55:17.242Z,55.85
2022-12-28T01:58:07.621Z,55.86
2022-12-28T02:00:35.673Z,55.95
2022-12-28T02:03:18.737Z,55.56
2022-12-28T02:05:50.921Z,55.98
2022-12-28T02:08:27.883Z,56.26
2022-12-28T02:10:55.145Z,55.82
2022-12-28T02:13:23.997Z,55.85
2022-12-28T02:15:51.462Z,55.92
2022-12-28T02:18:20.594Z,55.91
2022-12-28T02:21:02.083Z,56.04
2022-12-28T02:24:07.508Z,56.13
2022-12-28T02:26:59.241Z,55.89
2022-12-28T02:29:31.616Z,56.20
2022-12-28T02:35:47.372Z,56.24
2022-12-28T02:38:31.942Z,55.92
2022-12-28T02:41:03.566Z,55.94
2022-12-28T02:43:32.870Z,55.72
2022-12-28T02:46:31.187Z,55.54
2022-12-28T02:49:16.526Z,55.68
2022-12-28T02:51:52.632Z,55.69
2022-12-28T02:54:56.227Z,55.36
2022-12-28T02:57:53.497Z,55.58
2022-12-28T03:00:33.186Z,55.63
2022-12-28T03:03:16.238Z,55.70
2022-12-28T03:06:49.951Z,55.63
2022-12-28T03:09:28.963Z,55.69
2022-12-28T03:12:06.230Z,55.79
2022-12-28T03:14:42.829Z,56.02
2022-12-28T03:17:29.430Z,55.88
2022-12-28T03:20:18.085Z,55.56
2022-12-28T03:23:04.190Z,55.66
2022-12-28T03:25:53.840Z,55.62
2022-12-28T03:28:48.036Z,55.96
2022-12-28T03:31:19.119Z,55.68
2022-12-28T03:34:06.700Z,55.65
2022-12-28T03:37:06.424Z,55.89
2022-12-28T03:39:40.135Z,55.85
2022-12-28T03:42:44.786Z,55.71
2022-12-28T03:45:46.715Z,56.02
2022-12-28T03:48:17.340Z,56.10
2022-12-28T03:50:46.624Z,55.86
2022-12-28T03:53:21.576Z,55.95
2022-12-28T03:55:51.116Z,55.91
2022-12-28T03:58:21.904Z,56.22
2022-12-28T04:00:49.602Z,55.72
2022-12-28T04:03:19.716Z,55.91
2022-12-28T04:05:46.776Z,55.91
2022-12-28T04:08:13.506Z,56.28
2022-12-28T04:10:40.219Z,56.14
2022-12-28T04:13:08.795Z,56.01
2022-12-28T04:15:44.432Z,56.21
2022-12-28T04:18:11.237Z,56.29
2022-12-28T04:20:39.046Z,56.29
2022-12-28T04:23:05.614Z,56.29
2022-12-28T04:25:32.732Z,56.09
2022-12-28T04:27:59.632Z,56.14
2022-12-28T04:30:45.348Z,56.58
2022-12-28T04:33:12.051Z,56.48
2022-12-28T04:35:40.607Z,56.60
2022-12-28T04:38:07.588Z,56.44
2022-12-28T04:40:34.332Z,57.03
2022-12-28T04:43:01.191Z,56.79
2022-12-28T04:45:27.779Z,56.64
2022-12-28T04:47:57.879Z,56.69
2022-12-28T04:50:25.356Z,56.58
2022-12-28T04:52:51.974Z,56.44
2022-12-28T04:55:32.497Z,56.41
2022-12-28T04:58:00.802Z,56.60
2022-12-28T05:00:27.681Z,56.60
2022-12-28T05:02:54.433Z,56.88
2022-12-28T05:05:21.187Z,56.38
2022-12-28T05:07:47.731Z,56.47
2022-12-28T05:10:14.524Z,56.74
2022-12-28T05:12:41.404Z,56.40
2022-12-28T05:15:09.018Z,56.64
2022-12-28T05:17:36.613Z,56.58
2022-12-28T05:20:05.016Z,56.96
2022-12-28T05:22:35.080Z,56.79
2022-12-28T05:25:04.694Z,56.80
2022-12-28T05:27:31.472Z,57.10
2022-12-28T05:29:58.327Z,56.70
2022-12-28T05:32:25.145Z,56.99
2022-12-28T05:34:51.975Z,56.86
2022-12-28T05:37:22.164Z,56.82
2022-12-28T05:39:49.460Z,57.11
2022-12-28T05:42:16.312Z,56.99
2022-12-28T05:44:43.113Z,57.28
2022-12-28T05:47:09.907Z,57.13
2022-12-28T05:49:36.666Z,56.90
2022-12-28T05:52:06.189Z,56.85
2022-12-28T05:54:32.817Z,56.84
2022-12-28T05:56:59.628Z,56.82
2022-12-28T05:59:26.357Z,57.55
2022-12-28T06:01:53.222Z,57.30
2022-12-28T06:04:21.232Z,57.04
2022-12-28T06:06:48.676Z,56.94
2022-12-28T06:09:15.873Z,57.07
2022-12-28T06:11:45.892Z,57.24
2022-12-28T06:14:12.802Z,57.69
2022-12-28T06:16:41.906Z,57.08
2022-12-28T06:19:16.160Z,57.27
2022-12-28T06:21:42.912Z,57.37
2022-12-28T06:24:10.611Z,57.13
2022-12-28T06:26:39.138Z,57.29
2022-12-28T06:29:07.392Z,57.99
2022-12-28T06:31:36.885Z,58.37
2022-12-28T06:34:04.388Z,58.45
2022-12-28T06:36:34.278Z,57.84
2022-12-28T06:39:02.664Z,57.52
2022-12-28T06:41:30.369Z,57.31
2022-12-28T06:43:58.158Z,57.25
2022-12-28T06:46:26.877Z,57.21
2022-12-28T06:48:54.259Z,57.71
2022-12-28T06:51:36.461Z,57.57
2022-12-28T06:54:21.849Z,57.59
2022-12-28T06:56:48.842Z,57.34
2022-12-28T06:59:15.453Z,57.42
2022-12-28T07:01:47.568Z,57.55
2022-12-28T07:04:14.411Z,57.75
2022-12-28T07:06:43.569Z,57.56
2022-12-28T07:09:13.551Z,57.62
2022-12-28T07:11:40.631Z,57.82
2022-12-28T07:14:07.716Z,58.09
2022-12-28T07:19:01.033Z,57.69
2022-12-28T07:21:33.236Z,57.88
2022-12-28T07:24:00.758Z,57.88
2022-12-28T07:26:33.045Z,57.94
2022-12-28T07:29:05.466Z,57.73
2022-12-28T07:31:41.669Z,57.99
2022-12-28T07:34:12.276Z,57.71
2022-12-28T07:36:39.104Z,57.95
2022-12-28T07:39:09.096Z,57.53
2022-12-28T07:41:38.811Z,57.89
2022-12-28T07:44:05.751Z,57.81
2022-12-28T07:46:34.677Z,57.67
2022-12-28T07:49:01.559Z,57.94
2022-12-28T07:51:30.678Z,58.21
2022-12-28T07:53:59.006Z,58.86
2022-12-28T07:56:27.701Z,58.95
2022-12-28T07:58:57.645Z,59.07
2022-12-28T08:01:26.992Z,59.12
2022-12-28T08:03:57.891Z,58.73
2022-12-28T08:06:25.760Z,58.88
2022-12-28T08:08:55.328Z,58.75
2022-12-28T08:11:25.686Z,58.56
2022-12-28T08:13:54.701Z,58.29
2022-12-28T08:16:23.490Z,57.93
2022-12-28T08:18:50.932Z,57.70
2022-12-28T08:21:20.362Z,57.47
2022-12-28T08:23:48.208Z,56.89
2022-12-28T08:26:18.395Z,56.71
2022-12-28T08:28:46.511Z,56.13
2022-12-28T08:31:20.163Z,56.01
2022-12-28T08:33:47.943Z,55.66
2022-12-28T08:36:15.457Z,55.67
2022-12-28T08:38:44.059Z,55.30
2022-12-28T08:41:20.767Z,55.26
2022-12-28T08:43:48.501Z,55.30
2022-12-28T08:46:30.065Z,55.21
2022-12-28T08:48:58.470Z,54.75
2022-12-28T08:51:34.581Z,54.80
2022-12-28T08:54:02.424Z,54.88
2022-12-28T08:56:32.308Z,54.69
2022-12-28T08:58:59.542Z,54.56
2022-12-28T09:01:31.107Z,54.45
2022-12-28T09:04:00.163Z,54.43
2022-12-28T09:06:31.904Z,54.40
2022-12-28T09:09:07.277Z,54.25
2022-12-28T09:11:38.482Z,54.08
2022-12-28T09:14:07.783Z,54.10
2022-12-28T09:16:34.991Z,54.08
2022-12-28T09:19:04.292Z,54.00
2022-12-28T09:21:33.998Z,54.05
2022-12-28T09:24:00.877Z,54.00
2022-12-28T09:26:35.756Z,53.99
2022-12-28T09:29:04.861Z,53.93
2022-12-28T09:31:35.987Z,53.86
2022-12-28T09:36:52.489Z,53.82
2022-12-28T09:39:23.222Z,53.58
2022-12-28T09:41:58.692Z,53.72
2022-12-28T09:44:37.256Z,53.80
2022-12-28T09:47:37.640Z,53.69
2022-12-28T09:50:06.856Z,53.66
2022-12-28T09:52:42.420Z,53.60
2022-12-28T09:55:16.039Z,53.66
2022-12-28T09:57:47.198Z,53.68
2022-12-28T10:00:21.431Z,53.55
2022-12-28T10:02:54.109Z,53.65
2022-12-28T10:05:22.127Z,53.67
2022-12-28T10:07:49.888Z,53.65
2022-12-28T10:10:18.817Z,53.51
2022-12-28T10:12:45.916Z,53.24
2022-12-28T10:15:14.616Z,53.41
2022-12-28T10:17:42.447Z,53.30
2022-12-28T10:20:16.932Z,53.44
2022-12-28T10:22:49.822Z,53.43
2022-12-28T10:25:24.365Z,53.40
2022-12-28T10:27:51.664Z,53.39
2022-12-28T10:30:20.269Z,53.41
2022-12-28T10:33:01.556Z,53.40
2022-12-28T10:35:48.815Z,53.06
2022-12-28T10:38:24.739Z,53.29
2022-12-28T10:41:05.466Z,53.06
2022-12-28T10:43:39.754Z,53.01
2022-12-28T10:46:15.090Z,53.06
2022-12-28T10:48:46.383Z,53.02
2022-12-28T10:51:14.718Z,52.76
2022-12-28T10:53:48.443Z,52.71
2022-12-28T10:59:11.418Z,52.48
2022-12-28T11:01:39.747Z,52.51
2022-12-28T11:03:21.900Z,52.86
2022-12-28T11:04:17.580Z,52.33
2022-12-28T11:07:01.902Z,52.42
2022-12-28T11:09:35.213Z,52.06
2022-12-28T11:12:24.698Z,51.90
2022-12-28T11:14:52.629Z,52.04
2022-12-28T11:17:23.126Z,52.03
2022-12-28T11:19:54.215Z,52.01
2022-12-28T11:22:27.579Z,52.11
2022-12-28T11:24:54.756Z,51.70
2022-12-28T11:27:23.733Z,52.00
2022-12-28T11:29:53.201Z,52.05
2022-12-28T11:32:42.692Z,52.25
2022-12-28T11:35:17.726Z,52.27
2022-12-28T11:37:52.958Z,52.27
2022-12-28T11:40:44.372Z,52.27
2022-12-28T11:43:29.352Z,52.71
2022-12-28T11:46:04.415Z,52.44
2022-12-28T11:48:43.516Z,52.40
2022-12-28T11:51:43.594Z,52.52
2022-12-28T11:54:35.049Z,52.60
2022-12-28T11:57:01.850Z,52.40
2022-12-28T11:59:30.009Z,52.93
2022-12-28T12:01:59.497Z,52.59
2022-12-28T12:04:33.952Z,52.20
2022-12-28T12:07:03.445Z,52.13
2022-12-28T12:09:38.239Z,52.52
2022-12-28T12:12:17.669Z,52.18
2022-12-28T12:15:09.613Z,52.20
2022-12-28T12:17:57.561Z,52.23
2022-12-28T12:20:46.609Z,52.34
2022-12-28T12:23:32.497Z,52.24
2022-12-28T12:26:31.117Z,52.26
2022-12-28T12:29:25.997Z,52.17
2022-12-28T12:32:15.626Z,52.09
2022-12-28T12:34:49.706Z,52.24
2022-12-28T12:37:35.600Z,52.62
2022-12-28T12:40:17.531Z,52.59
2022-12-28T12:43:10.401Z,52.35
2022-12-28T12:45:39.834Z,52.33
2022-12-28T12:48:18.134Z,52.23
2022-12-28T12:51:14.162Z,52.28
2022-12-28T12:54:02.407Z,52.12
2022-12-28T12:56:50.841Z,52.36
2022-12-28T12:59:33.407Z,52.25
2022-12-28T13:02:13.278Z,52.22
2022-12-28T13:04:42.349Z,51.97
2022-12-28T13:07:27.397Z,51.76
2022-12-28T13:09:58.888Z,51.87
2022-12-28T13:12:25.873Z,51.92
2022-12-28T13:15:09.105Z,51.80
2022-12-28T13:17:39.414Z,51.80
2022-12-28T13:20:21.192Z,51.80
2022-12-28T13:22:49.233Z,51.82
2022-12-28T13:25:34.710Z,51.75
2022-12-28T13:28:03.444Z,51.89
2022-12-28T13:30:30.818Z,51.74
2022-12-28T13:33:00.729Z,51.48
2022-12-28T13:35:30.127Z,51.85
2022-12-28T13:38:03.184Z,51.84
2022-12-28T13:40:32.263Z,51.63
2022-12-28T13:43:36.356Z,51.63
2022-12-28T13:46:09.118Z,51.43
2022-12-28T13:48:40.947Z,51.49
2022-12-28T13:51:15.832Z,51.25
2022-12-28T13:53:49.117Z,51.34
2022-12-28T13:56:18.342Z,51.41
2022-12-28T13:58:52.603Z,51.38
2022-12-28T14:01:27.284Z,51.17
2022-12-28T14:04:50.115Z,51.57
2022-12-28T14:06:51.555Z,51.44
2022-12-28T14:09:20.554Z,51.12
2022-12-28T14:11:48.666Z,51.18
2022-12-28T14:14:16.760Z,51.26
2022-12-28T14:16:44.270Z,51.39
2022-12-28T14:19:11.663Z,51.35
2022-12-28T14:21:45.244Z,51.52
2022-12-28T14:24:15.328Z,51.28
2022-12-28T14:26:57.987Z,51.32
2022-12-28T14:29:32.759Z,51.40
2022-12-28T14:32:03.054Z,51.38
2022-12-28T14:34:32.109Z,51.42
2022-12-28T14:37:00.105Z,51.57
2022-12-28T14:39:43.879Z,51.30
2022-12-28T14:42:25.159Z,51.63
2022-12-28T14:44:56.219Z,51.26
2022-12-28T14:47:46.658Z,51.66
2022-12-28T14:50:28.303Z,51.60
2022-12-28T14:53:05.583Z,51.32
2022-12-28T14:55:53.325Z,51.65
2022-12-28T14:58:27.219Z,51.44
2022-12-28T15:01:03.510Z,51.55
2022-12-28T15:03:30.882Z,51.46
2022-12-28T15:05:58.892Z,51.42
2022-12-28T15:08:29.443Z,51.32
2022-12-28T15:11:00.317Z,51.62
2022-12-28T15:13:27.356Z,51.70
2022-12-28T15:15:59.732Z,51.62
2022-12-28T15:18:28.248Z,52.09
2022-12-28T15:20:55.468Z,51.99
2022-12-28T15:23:22.460Z,51.70
2022-12-28T15:25:49.625Z,51.92
2022-12-28T15:28:16.614Z,51.69
2022-12-28T15:30:44.132Z,51.67
2022-12-28T15:33:12.238Z,51.76
2022-12-28T15:35:39.211Z,52.22
2022-12-28T15:38:05.885Z,51.95
2022-12-28T15:40:32.578Z,52.41
2022-12-28T15:42:59.275Z,52.06
2022-12-28T15:45:26.225Z,52.26
2022-12-28T15:47:54.340Z,51.94
2022-12-28T15:50:21.532Z,52.19
2022-12-28T15:52:48.189Z,51.77
2022-12-28T15:55:15.217Z,51.80
2022-12-28T15:57:44.577Z,51.85
2022-12-28T16:00:18.726Z,51.96
2022-12-28T16:02:46.490Z,51.75
2022-12-28T16:05:13.539Z,51.69
2022-12-28T16:07:40.232Z,51.85
2022-12-28T16:10:07.366Z,51.63
2022-12-28T16:12:34.205Z,51.85
2022-12-28T16:15:00.905Z,51.47
2022-12-28T16:17:27.575Z,51.62
2022-12-28T16:19:54.485Z,51.90
2022-12-28T16:22:21.266Z,51.80
2022-12-28T16:24:48.744Z,51.91
2022-12-28T16:27:15.524Z,51.91
2022-12-28T16:29:42.392Z,51.94
2022-12-28T16:32:09.113Z,51.61
2022-12-28T16:34:35.834Z,51.87
2022-12-28T16:37:02.619Z,51.59
2022-12-28T16:39:30.110Z,51.73
2022-12-28T16:41:57.774Z,51.47
2022-12-28T16:44:27.442Z,51.79
2022-12-28T16:46:58.483Z,51.40
2022-12-28T16:49:26.853Z,51.37
2022-12-28T16:51:53.731Z,51.56
2022-12-28T16:54:22.909Z,51.36
2022-12-28T16:56:51.046Z,51.71
2022-12-28T16:59:27.930Z,51.64
2022-12-28T17:01:56.908Z,51.51
2022-12-28T17:04:23.964Z,51.36
2022-12-28T17:06:51.841Z,51.28
2022-12-28T17:09:20.075Z,51.35
2022-12-28T17:11:48.820Z,51.49
2022-12-28T17:14:29.341Z,51.20
2022-12-28T17:17:02.934Z,51.09
2022-12-28T17:19:29.861Z,51.40
2022-12-28T17:21:56.613Z,51.09
2022-12-28T17:24:23.312Z,51.19
2022-12-28T17:26:49.950Z,51.46
2022-12-28T17:29:16.630Z,51.13
2022-12-28T17:31:43.844Z,51.23
2022-12-28T17:34:11.101Z,51.22
2022-12-28T17:36:37.795Z,51.06
2022-12-28T17:39:04.676Z,51.01
2022-12-28T17:41:31.618Z,51.01
2022-12-28T17:44:00.270Z,51.11
2022-12-28T17:46:29.284Z,51.05
2022-12-28T17:48:57.958Z,51.29
2022-12-28T17:51:29.126Z,51.44
2022-12-28T17:53:56.786Z,51.03
2022-12-28T17:56:23.538Z,51.59
2022-12-28T17:58:55.733Z,51.54
2022-12-28T18:01:23.055Z,51.48
2022-12-28T18:03:50.324Z,51.51
2022-12-28T18:06:17.118Z,51.37
2022-12-28T18:08:43.752Z,51.00
2022-12-28T18:11:11.323Z,51.65
2022-12-28T18:13:39.344Z,51.49
2022-12-28T18:16:07.559Z,51.53
2022-12-28T18:18:35.257Z,51.46
2022-12-28T18:21:07.970Z,51.41
2022-12-28T18:23:35.780Z,51.74
2022-12-28T18:26:12.953Z,51.45
2022-12-28T18:28:39.575Z,51.44
2022-12-28T18:31:06.882Z,51.63
2022-12-28T18:33:34.609Z,51.59
2022-12-28T18:36:06.566Z,51.37
2022-12-28T18:38:35.678Z,51.41
2022-12-28T18:41:02.552Z,51.22
2022-12-28T18:43:29.283Z,51.40
2022-12-28T18:46:01.691Z,51.66
2022-12-28T18:48:29.704Z,51.47
2022-12-28T18:51:02.214Z,51.61
2022-12-28T18:53:30.680Z,51.38
2022-12-28T18:55:58.271Z,51.40
2022-12-28T18:58:26.925Z,51.50
2022-12-28T19:00:53.701Z,51.54
2022-12-28T19:03:20.612Z,51.78
2022-12-28T19:05:47.480Z,51.59
2022-12-28T19:08:14.148Z,51.79
2022-12-28T19:10:48.769Z,51.74
2022-12-28T19:13:15.618Z,51.37
2022-12-28T19:15:42.278Z,51.68
2022-12-28T19:18:09.066Z,51.95
2022-12-28T19:20:35.754Z,51.30
2022-12-28T19:23:02.419Z,51.42
2022-12-28T19:25:29.092Z,51.61
2022-12-28T19:27:56.756Z,51.43
2022-12-28T19:30:23.970Z,51.71
2022-12-28T19:32:52.753Z,51.80
2022-12-28T19:35:21.512Z,51.46
2022-12-28T19:37:48.293Z,51.57
2022-12-28T19:40:15.155Z,51.72
2022-12-28T19:42:42.513Z,51.76
2022-12-28T19:45:10.309Z,51.82
2022-12-28T19:47:37.697Z,51.94
2022-12-28T19:50:05.137Z,51.61
2022-12-28T19:52:33.548Z,51.89
2022-12-28T19:55:01.019Z,52.05
2022-12-28T19:57:27.750Z,51.72
2022-12-28T19:59:54.422Z,51.90
2022-12-28T20:02:21.155Z,51.79
2022-12-28T20:04:47.864Z,51.67
2022-12-28T20:07:14.603Z,51.83
2022-12-28T20:09:41.260Z,51.98
2022-12-28T20:12:08.041Z,51.92
2022-12-28T20:14:34.854Z,51.85
2022-12-28T20:17:01.470Z,51.98
2022-12-28T20:19:28.216Z,52.02
2022-12-28T20:21:54.982Z,51.93
2022-12-28T20:24:21.895Z,52.12
2022-12-28T20:26:48.858Z,51.96
2022-12-28T20:29:16.397Z,52.21
2022-12-28T20:31:43.459Z,51.93
2022-12-28T20:34:10.584Z,52.32
2022-12-28T20:36:37.219Z,52.45
2022-12-28T20:39:04.006Z,52.07
2022-12-28T20:41:50.686Z,52.16
2022-12-28T20:44:26.273Z,52.28
2022-12-28T20:46:53.429Z,52.29
2022-12-28T20:49:20.773Z,52.39
2022-12-28T20:51:47.848Z,52.44
2022-12-28T20:54:14.698Z,51.99
2022-12-28T20:56:42.285Z,52.05
2022-12-28T20:59:10.672Z,52.29
2022-12-28T21:01:38.544Z,52.15
2022-12-28T21:04:06.471Z,51.95
2022-12-28T21:06:33.587Z,52.17
2022-12-28T21:09:00.362Z,52.07
2022-12-28T21:11:28.935Z,52.08
2022-12-28T21:13:55.752Z,51.95
2022-12-28T21:16:22.937Z,52.12
2022-12-28T21:18:50.422Z,52.02
2022-12-28T21:21:20.135Z,52.04
2022-12-28T21:23:46.945Z,52.20
2022-12-28T21:26:16.480Z,52.03
2022-12-28T21:28:44.117Z,52.36
2022-12-28T21:31:11.691Z,52.16
2022-12-28T21:33:39.467Z,52.37
2022-12-28T21:36:17.737Z,52.30
2022-12-28T21:38:46.423Z,52.25
2022-12-28T21:41:41.603Z,52.27
2022-12-28T21:44:10.805Z,52.51
2022-12-28T21:46:37.504Z,52.28
2022-12-28T21:49:05.124Z,52.34
2022-12-28T21:51:31.902Z,52.80
2022-12-28T21:53:59.794Z,52.40
2022-12-28T21:56:27.133Z,52.79
2022-12-28T21:58:54.255Z,53.03
2022-12-28T22:01:39.681Z,53.59
2022-12-28T22:04:25.324Z,53.58
2022-12-28T22:06:52.154Z,53.49
2022-12-28T22:09:37.395Z,53.79
2022-12-28T22:12:22.750Z,53.86
2022-12-28T22:14:49.550Z,53.68
2022-12-28T22:17:16.670Z,53.75
2022-12-28T22:19:43.556Z,53.82
2022-12-28T22:22:10.469Z,54.18
2022-12-28T22:24:37.372Z,53.71
2022-12-28T22:27:04.228Z,53.84
2022-12-28T22:29:31.125Z,53.97
2022-12-28T22:31:57.980Z,53.75
2022-12-28T22:34:24.730Z,54.13
2022-12-28T22:36:51.469Z,54.19
2022-12-28T22:39:18.182Z,54.22
2022-12-28T22:41:44.804Z,54.13
2022-12-28T22:44:11.756Z,53.97
2022-12-28T22:46:38.555Z,54.27
2022-12-28T22:49:05.313Z,54.41
2022-12-28T22:51:32.032Z,54.14
2022-12-28T22:53:58.825Z,54.20
2022-12-28T22:56:25.644Z,54.04
2022-12-28T22:58:52.284Z,54.52
2022-12-28T23:01:19.910Z,54.81
2022-12-28T23:03:48.221Z,54.37
2022-12-28T23:06:18.250Z,54.37
2022-12-28T23:08:45.296Z,54.58
2022-12-28T23:11:38.019Z,54.44
2022-12-28T23:14:27.369Z,54.62
2022-12-28T23:16:54.326Z,54.45
2022-12-28T23:19:39.348Z,54.61
2022-12-28T23:22:26.396Z,54.63
2022-12-28T23:25:11.357Z,54.68
2022-12-28T23:27:41.024Z,54.52
2022-12-28T23:30:13.258Z,55.33
2022-12-28T23:32:40.594Z,55.38
2022-12-28T23:35:07.488Z,55.32
2022-12-28T23:37:34.291Z,55.18
2022-12-28T23:40:01.056Z,55.14
2022-12-28T23:42:28.120Z,55.69
2022-12-28T23:44:54.715Z,55.44
2022-12-28T23:47:21.346Z,55.44
2022-12-28T23:49:48.071Z,55.76
2022-12-28T23:52:14.868Z,55.81
2022-12-28T23:54:41.715Z,55.79
2022-12-28T23:57:08.523Z,55.53
2022-12-28T23:59:35.190Z,55.77
